sensor_id;sensor_type;location;lat;lon;timestamp;P1;durP1;ratioP1;P2;durP2;ratioP2
3415;SDS011;1721;51.238;9.562;2023-04-06T00:01:25;7.97;;;2.88;;
3415;SDS011;1721;51.238;9.562;2023-04-06T00:03:51;6.40;;;2.37;;
3415;SDS011;1721;51.238;9.562;2023-04-06T00:06:16;5.70;;;2.60;;
3415;SDS011;1721;51.238;9.562;2023-04-06T00:08:42;5.57;;;2.00;;
3415;SDS011;1721;51.238;9.562;2023-04-06T00:11:08;5.10;;;2.70;;
3415;SDS011;1721;51.238;9.562;2023-04-06T00:13:33;5.43;;;3.00;;
3415;SDS011;1721;51.238;9.562;2023-04-06T00:15:59;6.25;;;2.65;;
3415;SDS011;1721;51.238;9.562;2023-04-06T00:18:25;5.00;;;2.00;;
3415;SDS011;1721;51.238;9.562;2023-04-06T00:20:51;8.15;;;2.47;;
3415;SDS011;1721;51.238;9.562;2023-04-06T00:23:17;4.40;;;2.23;;
3415;SDS011;1721;51.238;9.562;2023-04-06T00:25:42;11.63;;;2.20;;
3415;SDS011;1721;51.238;9.562;2023-04-06T00:28:08;5.80;;;3.13;;
3415;SDS011;1721;51.238;9.562;2023-04-06T00:30:33;4.60;;;2.23;;
3415;SDS011;1721;51.238;9.562;2023-04-06T00:32:59;6.17;;;2.80;;
3415;SDS011;1721;51.238;9.562;2023-04-06T00:35:25;4.83;;;2.57;;
3415;SDS011;1721;51.238;9.562;2023-04-06T00:37:51;5.40;;;2.63;;
3415;SDS011;1721;51.238;9.562;2023-04-06T00:40:16;5.17;;;2.30;;
3415;SDS011;1721;51.238;9.562;2023-04-06T00:42:42;7.60;;;2.27;;
3415;SDS011;1721;51.238;9.562;2023-04-06T00:45:08;9.03;;;2.67;;
3415;SDS011;1721;51.238;9.562;2023-04-06T00:50:00;2.57;;;1.53;;
3415;SDS011;1721;51.238;9.562;2023-04-06T00:52:26;7.47;;;3.43;;
3415;SDS011;1721;51.238;9.562;2023-04-06T00:54:51;9.57;;;3.90;;
3415;SDS011;1721;51.238;9.562;2023-04-06T00:57:17;11.80;;;4.15;;
3415;SDS011;1721;51.238;9.562;2023-04-06T00:59:43;12.07;;;4.03;;
3415;SDS011;1721;51.238;9.562;2023-04-06T01:02:09;9.98;;;4.50;;
3415;SDS011;1721;51.238;9.562;2023-04-06T01:04:35;8.07;;;3.90;;
3415;SDS011;1721;51.238;9.562;2023-04-06T01:07:01;10.82;;;3.95;;
3415;SDS011;1721;51.238;9.562;2023-04-06T01:09:27;10.98;;;4.18;;
3415;SDS011;1721;51.238;9.562;2023-04-06T01:11:54;9.60;;;4.13;;
3415;SDS011;1721;51.238;9.562;2023-04-06T01:14:21;10.98;;;4.05;;
3415;SDS011;1721;51.238;9.562;2023-04-06T01:16:46;8.67;;;4.17;;
3415;SDS011;1721;51.238;9.562;2023-04-06T01:19:12;12.98;;;4.20;;
3415;SDS011;1721;51.238;9.562;2023-04-06T01:21:39;8.57;;;4.20;;
3415;SDS011;1721;51.238;9.562;2023-04-06T01:24:05;9.93;;;4.43;;
3415;SDS011;1721;51.238;9.562;2023-04-06T01:26:32;9.13;;;4.13;;
3415;SDS011;1721;51.238;9.562;2023-04-06T01:28:58;8.38;;;4.10;;
3415;SDS011;1721;51.238;9.562;2023-04-06T01:31:24;8.10;;;3.90;;
3415;SDS011;1721;51.238;9.562;2023-04-06T01:33:50;10.05;;;4.50;;
3415;SDS011;1721;51.238;9.562;2023-04-06T01:36:15;9.13;;;4.20;;
3415;SDS011;1721;51.238;9.562;2023-04-06T01:38:41;10.32;;;5.43;;
3415;SDS011;1721;51.238;9.562;2023-04-06T01:41:07;10.90;;;4.68;;
3415;SDS011;1721;51.238;9.562;2023-04-06T01:43:33;9.48;;;4.20;;
3415;SDS011;1721;51.238;9.562;2023-04-06T01:45:59;8.55;;;4.28;;
3415;SDS011;1721;51.238;9.562;2023-04-06T01:48:25;7.90;;;3.90;;
3415;SDS011;1721;51.238;9.562;2023-04-06T01:50:51;10.90;;;4.20;;
3415;SDS011;1721;51.238;9.562;2023-04-06T01:53:17;10.85;;;4.50;;
3415;SDS011;1721;51.238;9.562;2023-04-06T01:55:43;11.98;;;4.50;;
3415;SDS011;1721;51.238;9.562;2023-04-06T01:58:08;9.48;;;4.25;;
3415;SDS011;1721;51.238;9.562;2023-04-06T02:00:34;11.63;;;4.40;;
3415;SDS011;1721;51.238;9.562;2023-04-06T02:03:00;10.13;;;4.30;;
3415;SDS011;1721;51.238;9.562;2023-04-06T02:05:26;8.55;;;4.10;;
3415;SDS011;1721;51.238;9.562;2023-04-06T02:07:51;9.48;;;4.22;;
3415;SDS011;1721;51.238;9.562;2023-04-06T02:10:17;9.63;;;4.18;;
3415;SDS011;1721;51.238;9.562;2023-04-06T02:12:43;12.65;;;4.65;;
3415;SDS011;1721;51.238;9.562;2023-04-06T02:15:09;9.13;;;4.25;;
3415;SDS011;1721;51.238;9.562;2023-04-06T02:17:35;9.30;;;3.90;;
3415;SDS011;1721;51.238;9.562;2023-04-06T02:20:01;8.90;;;4.07;;
3415;SDS011;1721;51.238;9.562;2023-04-06T02:22:26;9.05;;;4.07;;
3415;SDS011;1721;51.238;9.562;2023-04-06T02:24:52;11.07;;;3.92;;
3415;SDS011;1721;51.238;9.562;2023-04-06T02:27:17;9.60;;;3.90;;
3415;SDS011;1721;51.238;9.562;2023-04-06T02:29:43;6.63;;;3.57;;
3415;SDS011;1721;51.238;9.562;2023-04-06T02:32:08;10.83;;;4.77;;
3415;SDS011;1721;51.238;9.562;2023-04-06T02:34:34;8.97;;;4.50;;
3415;SDS011;1721;51.238;9.562;2023-04-06T02:36:59;10.25;;;4.35;;
3415;SDS011;1721;51.238;9.562;2023-04-06T02:39:25;8.85;;;3.88;;
3415;SDS011;1721;51.238;9.562;2023-04-06T02:41:51;10.07;;;4.47;;
3415;SDS011;1721;51.238;9.562;2023-04-06T02:44:16;10.30;;;4.00;;
3415;SDS011;1721;51.238;9.562;2023-04-06T02:46:42;8.73;;;4.77;;
3415;SDS011;1721;51.238;9.562;2023-04-06T02:49:07;9.80;;;4.63;;
3415;SDS011;1721;51.238;9.562;2023-04-06T02:51:33;8.75;;;4.50;;
3415;SDS011;1721;51.238;9.562;2023-04-06T02:53:59;10.57;;;3.50;;
3415;SDS011;1721;51.238;9.562;2023-04-06T02:56:24;9.50;;;4.20;;
3415;SDS011;1721;51.238;9.562;2023-04-06T02:58:51;10.47;;;4.13;;
3415;SDS011;1721;51.238;9.562;2023-04-06T03:01:16;12.00;;;4.20;;
3415;SDS011;1721;51.238;9.562;2023-04-06T03:03:42;10.35;;;4.10;;
3415;SDS011;1721;51.238;9.562;2023-04-06T03:06:08;9.43;;;4.10;;
3415;SDS011;1721;51.238;9.562;2023-04-06T03:08:33;10.80;;;4.30;;
3415;SDS011;1721;51.238;9.562;2023-04-06T03:10:59;7.10;;;3.60;;
3415;SDS011;1721;51.238;9.562;2023-04-06T03:13:25;9.68;;;4.00;;
3415;SDS011;1721;51.238;9.562;2023-04-06T03:15:50;7.93;;;3.93;;
3415;SDS011;1721;51.238;9.562;2023-04-06T03:18:17;10.33;;;4.70;;
3415;SDS011;1721;51.238;9.562;2023-04-06T03:20:46;10.13;;;4.13;;
3415;SDS011;1721;51.238;9.562;2023-04-06T03:23:12;10.20;;;3.97;;
3415;SDS011;1721;51.238;9.562;2023-04-06T03:25:37;9.93;;;3.83;;
3415;SDS011;1721;51.238;9.562;2023-04-06T03:28:04;8.60;;;3.60;;
3415;SDS011;1721;51.238;9.562;2023-04-06T03:30:30;9.37;;;4.50;;
3415;SDS011;1721;51.238;9.562;2023-04-06T03:32:55;9.70;;;3.78;;
3415;SDS011;1721;51.238;9.562;2023-04-06T03:35:21;10.38;;;4.10;;
3415;SDS011;1721;51.238;9.562;2023-04-06T03:37:47;8.00;;;3.85;;
3415;SDS011;1721;51.238;9.562;2023-04-06T03:40:12;9.50;;;3.90;;
3415;SDS011;1721;51.238;9.562;2023-04-06T03:42:38;14.40;;;3.83;;
3415;SDS011;1721;51.238;9.562;2023-04-06T03:45:03;10.00;;;4.00;;
3415;SDS011;1721;51.238;9.562;2023-04-06T03:47:29;12.20;;;3.80;;
3415;SDS011;1721;51.238;9.562;2023-04-06T03:49:55;9.60;;;4.00;;
3415;SDS011;1721;51.238;9.562;2023-04-06T03:52:20;10.80;;;3.87;;
3415;SDS011;1721;51.238;9.562;2023-04-06T03:54:48;9.77;;;4.20;;
3415;SDS011;1721;51.238;9.562;2023-04-06T03:57:13;7.23;;;3.80;;
3415;SDS011;1721;51.238;9.562;2023-04-06T03:59:39;10.35;;;3.90;;
3415;SDS011;1721;51.238;9.562;2023-04-06T04:02:05;9.07;;;4.10;;
3415;SDS011;1721;51.238;9.562;2023-04-06T04:04:30;9.70;;;4.40;;
3415;SDS011;1721;51.238;9.562;2023-04-06T04:06:56;12.53;;;4.40;;
3415;SDS011;1721;51.238;9.562;2023-04-06T04:09:21;9.73;;;4.40;;
3415;SDS011;1721;51.238;9.562;2023-04-06T04:11:47;9.98;;;4.10;;
3415;SDS011;1721;51.238;9.562;2023-04-06T04:14:12;8.27;;;3.60;;
3415;SDS011;1721;51.238;9.562;2023-04-06T04:16:38;10.55;;;4.50;;
3415;SDS011;1721;51.238;9.562;2023-04-06T04:19:04;9.47;;;3.97;;
3415;SDS011;1721;51.238;9.562;2023-04-06T04:21:31;9.75;;;4.18;;
3415;SDS011;1721;51.238;9.562;2023-04-06T04:23:57;8.95;;;4.10;;
3415;SDS011;1721;51.238;9.562;2023-04-06T04:26:22;8.25;;;3.80;;
3415;SDS011;1721;51.238;9.562;2023-04-06T04:28:48;9.75;;;4.00;;
3415;SDS011;1721;51.238;9.562;2023-04-06T04:31:13;14.37;;;4.43;;
3415;SDS011;1721;51.238;9.562;2023-04-06T04:33:39;8.43;;;4.23;;
3415;SDS011;1721;51.238;9.562;2023-04-06T04:36:05;9.03;;;3.60;;
3415;SDS011;1721;51.238;9.562;2023-04-06T04:38:30;7.78;;;3.95;;
3415;SDS011;1721;51.238;9.562;2023-04-06T04:40:56;15.07;;;4.70;;
3415;SDS011;1721;51.238;9.562;2023-04-06T04:43:22;9.30;;;3.90;;
3415;SDS011;1721;51.238;9.562;2023-04-06T04:45:47;10.10;;;4.30;;
3415;SDS011;1721;51.238;9.562;2023-04-06T04:48:13;10.18;;;3.95;;
3415;SDS011;1721;51.238;9.562;2023-04-06T04:50:38;11.48;;;4.40;;
3415;SDS011;1721;51.238;9.562;2023-04-06T04:53:04;10.90;;;4.63;;
3415;SDS011;1721;51.238;9.562;2023-04-06T04:55:32;12.05;;;3.90;;
3415;SDS011;1721;51.238;9.562;2023-04-06T04:57:58;10.73;;;4.47;;
3415;SDS011;1721;51.238;9.562;2023-04-06T05:00:24;10.07;;;4.47;;
3415;SDS011;1721;51.238;9.562;2023-04-06T05:02:50;10.30;;;4.40;;
3415;SDS011;1721;51.238;9.562;2023-04-06T05:05:16;11.00;;;4.32;;
3415;SDS011;1721;51.238;9.562;2023-04-06T05:07:41;9.80;;;4.65;;
3415;SDS011;1721;51.238;9.562;2023-04-06T05:10:07;11.33;;;4.20;;
3415;SDS011;1721;51.238;9.562;2023-04-06T05:12:33;11.60;;;4.13;;
3415;SDS011;1721;51.238;9.562;2023-04-06T05:14:58;10.77;;;4.80;;
3415;SDS011;1721;51.238;9.562;2023-04-06T05:17:24;9.88;;;4.65;;
3415;SDS011;1721;51.238;9.562;2023-04-06T05:19:50;11.43;;;5.00;;
3415;SDS011;1721;51.238;9.562;2023-04-06T05:22:16;11.50;;;4.93;;
3415;SDS011;1721;51.238;9.562;2023-04-06T05:24:42;9.75;;;4.13;;
3415;SDS011;1721;51.238;9.562;2023-04-06T05:27:08;9.43;;;4.45;;
3415;SDS011;1721;51.238;9.562;2023-04-06T05:29:34;11.40;;;4.68;;
3415;SDS011;1721;51.238;9.562;2023-04-06T05:32:00;9.93;;;4.27;;
3415;SDS011;1721;51.238;9.562;2023-04-06T05:34:26;10.35;;;4.32;;
3415;SDS011;1721;51.238;9.562;2023-04-06T05:36:51;10.43;;;4.70;;
3415;SDS011;1721;51.238;9.562;2023-04-06T05:39:17;12.57;;;4.90;;
3415;SDS011;1721;51.238;9.562;2023-04-06T05:41:42;9.70;;;4.22;;
3415;SDS011;1721;51.238;9.562;2023-04-06T05:44:08;10.02;;;4.45;;
3415;SDS011;1721;51.238;9.562;2023-04-06T05:46:34;12.20;;;4.32;;
3415;SDS011;1721;51.238;9.562;2023-04-06T05:48:59;10.03;;;4.10;;
3415;SDS011;1721;51.238;9.562;2023-04-06T05:51:25;14.70;;;4.50;;
3415;SDS011;1721;51.238;9.562;2023-04-06T05:53:52;10.75;;;4.40;;
3415;SDS011;1721;51.238;9.562;2023-04-06T05:56:18;9.70;;;4.20;;
3415;SDS011;1721;51.238;9.562;2023-04-06T05:58:43;11.50;;;4.70;;
3415;SDS011;1721;51.238;9.562;2023-04-06T06:01:09;9.82;;;4.50;;
3415;SDS011;1721;51.238;9.562;2023-04-06T06:03:34;11.90;;;4.60;;
3415;SDS011;1721;51.238;9.562;2023-04-06T06:06:03;11.03;;;5.50;;
3415;SDS011;1721;51.238;9.562;2023-04-06T06:08:30;31.92;;;9.35;;
3415;SDS011;1721;51.238;9.562;2023-04-06T06:10:55;15.13;;;6.40;;
3415;SDS011;1721;51.238;9.562;2023-04-06T06:13:22;14.80;;;4.30;;
3415;SDS011;1721;51.238;9.562;2023-04-06T06:15:48;8.27;;;4.00;;
3415;SDS011;1721;51.238;9.562;2023-04-06T06:18:14;8.85;;;4.07;;
3415;SDS011;1721;51.238;9.562;2023-04-06T06:20:40;10.93;;;2.70;;
3415;SDS011;1721;51.238;9.562;2023-04-06T06:23:05;7.53;;;2.90;;
3415;SDS011;1721;51.238;9.562;2023-04-06T06:25:31;7.60;;;2.33;;
3415;SDS011;1721;51.238;9.562;2023-04-06T06:27:58;9.23;;;3.25;;
3415;SDS011;1721;51.238;9.562;2023-04-06T06:30:24;6.35;;;2.97;;
3415;SDS011;1721;51.238;9.562;2023-04-06T06:32:50;6.50;;;2.50;;
3415;SDS011;1721;51.238;9.562;2023-04-06T06:35:16;9.27;;;3.33;;
3415;SDS011;1721;51.238;9.562;2023-04-06T06:37:41;8.93;;;2.80;;
3415;SDS011;1721;51.238;9.562;2023-04-06T06:40:08;6.50;;;3.10;;
3415;SDS011;1721;51.238;9.562;2023-04-06T06:42:35;6.38;;;2.40;;
3415;SDS011;1721;51.238;9.562;2023-04-06T06:45:00;5.97;;;2.80;;
3415;SDS011;1721;51.238;9.562;2023-04-06T06:47:26;7.50;;;2.90;;
3415;SDS011;1721;51.238;9.562;2023-04-06T06:49:51;11.30;;;3.63;;
3415;SDS011;1721;51.238;9.562;2023-04-06T06:52:17;9.07;;;3.23;;
3415;SDS011;1721;51.238;9.562;2023-04-06T06:54:43;10.00;;;2.80;;
3415;SDS011;1721;51.238;9.562;2023-04-06T06:57:09;8.70;;;3.80;;
3415;SDS011;1721;51.238;9.562;2023-04-06T06:59:35;10.60;;;2.83;;
3415;SDS011;1721;51.238;9.562;2023-04-06T07:02:00;6.30;;;3.30;;
3415;SDS011;1721;51.238;9.562;2023-04-06T07:04:26;11.50;;;3.30;;
3415;SDS011;1721;51.238;9.562;2023-04-06T07:06:51;7.60;;;3.07;;
3415;SDS011;1721;51.238;9.562;2023-04-06T07:09:17;7.20;;;2.87;;
3415;SDS011;1721;51.238;9.562;2023-04-06T07:11:43;9.00;;;3.67;;
3415;SDS011;1721;51.238;9.562;2023-04-06T07:14:09;6.50;;;2.80;;
3415;SDS011;1721;51.238;9.562;2023-04-06T07:16:36;7.07;;;2.90;;
3415;SDS011;1721;51.238;9.562;2023-04-06T07:19:02;10.27;;;4.35;;
3415;SDS011;1721;51.238;9.562;2023-04-06T07:21:27;9.47;;;3.87;;
3415;SDS011;1721;51.238;9.562;2023-04-06T07:23:53;6.37;;;2.53;;
3415;SDS011;1721;51.238;9.562;2023-04-06T07:26:18;7.23;;;3.10;;
3415;SDS011;1721;51.238;9.562;2023-04-06T07:28:45;7.88;;;3.88;;
3415;SDS011;1721;51.238;9.562;2023-04-06T07:31:10;6.03;;;2.83;;
3415;SDS011;1721;51.238;9.562;2023-04-06T07:33:36;12.37;;;3.60;;
3415;SDS011;1721;51.238;9.562;2023-04-06T07:36:01;12.77;;;3.50;;
3415;SDS011;1721;51.238;9.562;2023-04-06T07:38:27;8.40;;;3.93;;
3415;SDS011;1721;51.238;9.562;2023-04-06T07:40:53;9.70;;;3.40;;
3415;SDS011;1721;51.238;9.562;2023-04-06T07:43:18;8.67;;;3.63;;
3415;SDS011;1721;51.238;9.562;2023-04-06T07:45:44;7.53;;;3.30;;
3415;SDS011;1721;51.238;9.562;2023-04-06T07:48:10;8.97;;;3.67;;
3415;SDS011;1721;51.238;9.562;2023-04-06T07:50:35;12.43;;;4.50;;
3415;SDS011;1721;51.238;9.562;2023-04-06T07:53:01;7.83;;;3.60;;
3415;SDS011;1721;51.238;9.562;2023-04-06T07:55:27;10.50;;;3.10;;
3415;SDS011;1721;51.238;9.562;2023-04-06T07:57:53;9.50;;;3.03;;
3415;SDS011;1721;51.238;9.562;2023-04-06T08:00:19;7.33;;;3.37;;
3415;SDS011;1721;51.238;9.562;2023-04-06T08:02:45;5.90;;;2.97;;
3415;SDS011;1721;51.238;9.562;2023-04-06T08:05:10;9.50;;;3.30;;
3415;SDS011;1721;51.238;9.562;2023-04-06T08:07:36;8.40;;;3.40;;
3415;SDS011;1721;51.238;9.562;2023-04-06T08:10:02;7.23;;;2.60;;
3415;SDS011;1721;51.238;9.562;2023-04-06T08:12:28;10.35;;;2.95;;
3415;SDS011;1721;51.238;9.562;2023-04-06T08:14:53;8.07;;;3.30;;
3415;SDS011;1721;51.238;9.562;2023-04-06T08:17:19;10.07;;;3.30;;
3415;SDS011;1721;51.238;9.562;2023-04-06T08:19:45;8.40;;;3.40;;
3415;SDS011;1721;51.238;9.562;2023-04-06T08:22:11;8.17;;;2.43;;
3415;SDS011;1721;51.238;9.562;2023-04-06T08:24:37;11.73;;;3.85;;
3415;SDS011;1721;51.238;9.562;2023-04-06T08:27:02;6.30;;;2.40;;
3415;SDS011;1721;51.238;9.562;2023-04-06T08:29:28;7.53;;;2.83;;
3415;SDS011;1721;51.238;9.562;2023-04-06T08:31:54;8.83;;;3.07;;
3415;SDS011;1721;51.238;9.562;2023-04-06T08:34:20;9.63;;;3.40;;
3415;SDS011;1721;51.238;9.562;2023-04-06T08:36:46;7.68;;;3.03;;
3415;SDS011;1721;51.238;9.562;2023-04-06T08:39:11;7.80;;;3.13;;
3415;SDS011;1721;51.238;9.562;2023-04-06T08:41:37;5.40;;;2.60;;
3415;SDS011;1721;51.238;9.562;2023-04-06T08:44:02;8.37;;;2.70;;
3415;SDS011;1721;51.238;9.562;2023-04-06T08:46:30;19.42;;;3.30;;
3415;SDS011;1721;51.238;9.562;2023-04-06T08:48:56;5.57;;;2.47;;
3415;SDS011;1721;51.238;9.562;2023-04-06T08:51:25;17.25;;;2.78;;
3415;SDS011;1721;51.238;9.562;2023-04-06T08:53:54;9.15;;;2.45;;
3415;SDS011;1721;51.238;9.562;2023-04-06T08:56:25;17.67;;;2.50;;
3415;SDS011;1721;51.238;9.562;2023-04-06T08:58:52;11.82;;;3.00;;
3415;SDS011;1721;51.238;9.562;2023-04-06T09:01:25;6.75;;;2.55;;
3415;SDS011;1721;51.238;9.562;2023-04-06T09:03:56;6.90;;;3.20;;
3415;SDS011;1721;51.238;9.562;2023-04-06T09:06:24;5.25;;;1.98;;
3415;SDS011;1721;51.238;9.562;2023-04-06T09:08:51;4.80;;;2.45;;
3415;SDS011;1721;51.238;9.562;2023-04-06T09:11:17;8.90;;;3.20;;
3415;SDS011;1721;51.238;9.562;2023-04-06T09:13:49;8.40;;;3.40;;
3415;SDS011;1721;51.238;9.562;2023-04-06T09:16:16;7.03;;;2.28;;
3415;SDS011;1721;51.238;9.562;2023-04-06T09:18:43;7.40;;;2.72;;
3415;SDS011;1721;51.238;9.562;2023-04-06T09:21:09;7.55;;;2.50;;
3415;SDS011;1721;51.238;9.562;2023-04-06T09:23:35;7.90;;;2.92;;
3415;SDS011;1721;51.238;9.562;2023-04-06T09:26:08;6.40;;;2.43;;
3415;SDS011;1721;51.238;9.562;2023-04-06T09:28:46;8.00;;;3.10;;
3415;SDS011;1721;51.238;9.562;2023-04-06T09:31:12;7.78;;;2.90;;
3415;SDS011;1721;51.238;9.562;2023-04-06T09:33:46;11.40;;;3.40;;
3415;SDS011;1721;51.238;9.562;2023-04-06T09:36:12;15.50;;;3.13;;
3415;SDS011;1721;51.238;9.562;2023-04-06T09:38:50;10.35;;;3.53;;
3415;SDS011;1721;51.238;9.562;2023-04-06T09:41:28;11.55;;;3.55;;
3415;SDS011;1721;51.238;9.562;2023-04-06T09:46:33;9.20;;;2.70;;
3415;SDS011;1721;51.238;9.562;2023-04-06T09:49:03;8.10;;;2.60;;
3415;SDS011;1721;51.238;9.562;2023-04-06T09:51:30;8.32;;;3.80;;
3415;SDS011;1721;51.238;9.562;2023-04-06T09:53:58;6.40;;;2.45;;
3415;SDS011;1721;51.238;9.562;2023-04-06T09:56:27;10.85;;;3.92;;
3415;SDS011;1721;51.238;9.562;2023-04-06T09:58:56;9.70;;;2.55;;
3415;SDS011;1721;51.238;9.562;2023-04-06T10:01:28;8.00;;;3.25;;
3415;SDS011;1721;51.238;9.562;2023-04-06T10:06:38;12.93;;;3.80;;
3415;SDS011;1721;51.238;9.562;2023-04-06T10:09:04;10.75;;;3.03;;
3415;SDS011;1721;51.238;9.562;2023-04-06T10:11:33;7.90;;;3.22;;
3415;SDS011;1721;51.238;9.562;2023-04-06T10:13:59;8.00;;;3.00;;
3415;SDS011;1721;51.238;9.562;2023-04-06T10:16:25;9.38;;;3.53;;
3415;SDS011;1721;51.238;9.562;2023-04-06T10:18:54;8.63;;;3.08;;
3415;SDS011;1721;51.238;9.562;2023-04-06T10:21:25;7.50;;;3.53;;
3415;SDS011;1721;51.238;9.562;2023-04-06T10:24:00;8.32;;;3.85;;
3415;SDS011;1721;51.238;9.562;2023-04-06T10:26:31;7.68;;;2.92;;
3415;SDS011;1721;51.238;9.562;2023-04-06T10:29:01;8.77;;;3.53;;
3415;SDS011;1721;51.238;9.562;2023-04-06T10:31:29;12.88;;;4.03;;
3415;SDS011;1721;51.238;9.562;2023-04-06T10:33:56;13.13;;;3.80;;
3415;SDS011;1721;51.238;9.562;2023-04-06T10:36:26;9.07;;;3.25;;
3415;SDS011;1721;51.238;9.562;2023-04-06T10:38:58;11.13;;;4.10;;
3415;SDS011;1721;51.238;9.562;2023-04-06T10:41:35;8.65;;;3.55;;
3415;SDS011;1721;51.238;9.562;2023-04-06T10:44:22;12.07;;;4.50;;
3415;SDS011;1721;51.238;9.562;2023-04-06T10:46:52;8.75;;;3.63;;
3415;SDS011;1721;51.238;9.562;2023-04-06T10:49:21;7.78;;;3.60;;
3415;SDS011;1721;51.238;9.562;2023-04-06T10:51:51;10.07;;;4.20;;
3415;SDS011;1721;51.238;9.562;2023-04-06T10:54:18;10.35;;;3.95;;
3415;SDS011;1721;51.238;9.562;2023-04-06T10:56:45;21.88;;;4.18;;
3415;SDS011;1721;51.238;9.562;2023-04-06T10:59:11;11.43;;;4.37;;
3415;SDS011;1721;51.238;9.562;2023-04-06T11:01:36;12.20;;;4.90;;
3415;SDS011;1721;51.238;9.562;2023-04-06T11:04:02;10.50;;;3.60;;
3415;SDS011;1721;51.238;9.562;2023-04-06T11:06:29;13.80;;;3.70;;
3415;SDS011;1721;51.238;9.562;2023-04-06T11:08:56;8.88;;;3.50;;
3415;SDS011;1721;51.238;9.562;2023-04-06T11:11:23;10.57;;;4.00;;
3415;SDS011;1721;51.238;9.562;2023-04-06T11:16:17;10.87;;;4.07;;
3415;SDS011;1721;51.238;9.562;2023-04-06T11:19:25;13.63;;;4.90;;
3415;SDS011;1721;51.238;9.562;2023-04-06T11:29:09;12.88;;;4.72;;
3415;SDS011;1721;51.238;9.562;2023-04-06T11:31:45;15.93;;;4.80;;
3415;SDS011;1721;51.238;9.562;2023-04-06T11:34:12;11.05;;;4.47;;
3415;SDS011;1721;51.238;9.562;2023-04-06T11:36:41;11.40;;;4.50;;
3415;SDS011;1721;51.238;9.562;2023-04-06T11:39:07;10.77;;;4.38;;
3415;SDS011;1721;51.238;9.562;2023-04-06T11:41:33;11.43;;;4.10;;
3415;SDS011;1721;51.238;9.562;2023-04-06T11:44:00;13.03;;;5.40;;
3415;SDS011;1721;51.238;9.562;2023-04-06T11:46:27;11.32;;;4.38;;
3415;SDS011;1721;51.238;9.562;2023-04-06T11:48:53;10.17;;;4.13;;
3415;SDS011;1721;51.238;9.562;2023-04-06T11:51:25;10.23;;;4.25;;
3415;SDS011;1721;51.238;9.562;2023-04-06T11:53:51;12.25;;;4.45;;
3415;SDS011;1721;51.238;9.562;2023-04-06T11:56:27;9.60;;;4.73;;
3415;SDS011;1721;51.238;9.562;2023-04-06T11:58:54;11.00;;;4.13;;
3415;SDS011;1721;51.238;9.562;2023-04-06T12:01:21;7.50;;;3.25;;
3415;SDS011;1721;51.238;9.562;2023-04-06T12:03:47;10.65;;;3.80;;
3415;SDS011;1721;51.238;9.562;2023-04-06T12:06:13;10.33;;;3.73;;
3415;SDS011;1721;51.238;9.562;2023-04-06T12:08:39;11.63;;;3.95;;
3415;SDS011;1721;51.238;9.562;2023-04-06T12:11:05;8.83;;;4.00;;
3415;SDS011;1721;51.238;9.562;2023-04-06T12:13:31;9.70;;;4.37;;
3415;SDS011;1721;51.238;9.562;2023-04-06T12:15:56;10.63;;;3.90;;
3415;SDS011;1721;51.238;9.562;2023-04-06T12:18:22;12.70;;;3.77;;
3415;SDS011;1721;51.238;9.562;2023-04-06T12:20:47;7.37;;;3.67;;
3415;SDS011;1721;51.238;9.562;2023-04-06T12:23:13;12.27;;;3.60;;
3415;SDS011;1721;51.238;9.562;2023-04-06T12:25:39;7.70;;;3.00;;
3415;SDS011;1721;51.238;9.562;2023-04-06T12:28:06;16.10;;;3.83;;
3415;SDS011;1721;51.238;9.562;2023-04-06T12:30:31;12.37;;;4.70;;
3415;SDS011;1721;51.238;9.562;2023-04-06T12:32:57;10.17;;;3.60;;
3415;SDS011;1721;51.238;9.562;2023-04-06T12:35:23;8.53;;;3.50;;
3415;SDS011;1721;51.238;9.562;2023-04-06T12:37:48;9.80;;;4.17;;
3415;SDS011;1721;51.238;9.562;2023-04-06T12:40:14;10.57;;;3.50;;
3415;SDS011;1721;51.238;9.562;2023-04-06T12:42:40;14.30;;;4.20;;
3415;SDS011;1721;51.238;9.562;2023-04-06T12:45:06;9.80;;;3.70;;
3415;SDS011;1721;51.238;9.562;2023-04-06T12:47:33;10.35;;;3.75;;
3415;SDS011;1721;51.238;9.562;2023-04-06T12:49:58;11.57;;;3.40;;
3415;SDS011;1721;51.238;9.562;2023-04-06T12:52:24;12.60;;;4.23;;
3415;SDS011;1721;51.238;9.562;2023-04-06T12:54:50;9.73;;;3.60;;
3415;SDS011;1721;51.238;9.562;2023-04-06T12:57:16;7.13;;;3.45;;
3415;SDS011;1721;51.238;9.562;2023-04-06T12:59:45;14.50;;;4.70;;
3415;SDS011;1721;51.238;9.562;2023-04-06T13:02:11;9.55;;;2.60;;
3415;SDS011;1721;51.238;9.562;2023-04-06T13:04:36;5.87;;;2.50;;
3415;SDS011;1721;51.238;9.562;2023-04-06T13:07:02;11.37;;;3.47;;
3415;SDS011;1721;51.238;9.562;2023-04-06T13:09:27;6.87;;;2.40;;
3415;SDS011;1721;51.238;9.562;2023-04-06T13:11:53;11.93;;;3.47;;
3415;SDS011;1721;51.238;9.562;2023-04-06T13:14:19;7.17;;;3.33;;
3415;SDS011;1721;51.238;9.562;2023-04-06T13:16:45;6.75;;;2.30;;
3415;SDS011;1721;51.238;9.562;2023-04-06T13:19:11;11.33;;;3.33;;
3415;SDS011;1721;51.238;9.562;2023-04-06T13:21:36;6.03;;;2.43;;
3415;SDS011;1721;51.238;9.562;2023-04-06T13:24:02;9.23;;;3.13;;
3415;SDS011;1721;51.238;9.562;2023-04-06T13:26:29;7.53;;;2.70;;
3415;SDS011;1721;51.238;9.562;2023-04-06T13:28:55;10.83;;;3.30;;
3415;SDS011;1721;51.238;9.562;2023-04-06T13:31:21;9.27;;;3.67;;
3415;SDS011;1721;51.238;9.562;2023-04-06T13:33:47;7.53;;;2.93;;
3415;SDS011;1721;51.238;9.562;2023-04-06T13:36:13;8.90;;;2.60;;
3415;SDS011;1721;51.238;9.562;2023-04-06T13:38:38;8.17;;;2.60;;
3415;SDS011;1721;51.238;9.562;2023-04-06T13:41:04;6.00;;;2.80;;
3415;SDS011;1721;51.238;9.562;2023-04-06T13:43:30;9.95;;;3.60;;
3415;SDS011;1721;51.238;9.562;2023-04-06T13:45:56;9.07;;;3.50;;
3415;SDS011;1721;51.238;9.562;2023-04-06T13:48:24;7.88;;;2.92;;
3415;SDS011;1721;51.238;9.562;2023-04-06T13:50:51;8.57;;;3.83;;
3415;SDS011;1721;51.238;9.562;2023-04-06T13:53:17;9.60;;;3.53;;
3415;SDS011;1721;51.238;9.562;2023-04-06T13:55:43;17.50;;;3.90;;
3415;SDS011;1721;51.238;9.562;2023-04-06T13:58:16;10.48;;;3.40;;
3415;SDS011;1721;51.238;9.562;2023-04-06T14:00:42;11.07;;;3.00;;
3415;SDS011;1721;51.238;9.562;2023-04-06T14:03:07;9.73;;;3.60;;
3415;SDS011;1721;51.238;9.562;2023-04-06T14:05:33;9.93;;;3.63;;
3415;SDS011;1721;51.238;9.562;2023-04-06T14:07:58;6.97;;;3.30;;
3415;SDS011;1721;51.238;9.562;2023-04-06T14:10:24;10.47;;;3.33;;
3415;SDS011;1721;51.238;9.562;2023-04-06T14:12:52;10.32;;;3.33;;
3415;SDS011;1721;51.238;9.562;2023-04-06T14:15:17;10.80;;;3.30;;
3415;SDS011;1721;51.238;9.562;2023-04-06T14:17:43;12.07;;;3.10;;
3415;SDS011;1721;51.238;9.562;2023-04-06T14:20:09;9.23;;;3.13;;
3415;SDS011;1721;51.238;9.562;2023-04-06T14:22:39;12.25;;;3.63;;
3415;SDS011;1721;51.238;9.562;2023-04-06T14:25:06;11.00;;;4.22;;
3415;SDS011;1721;51.238;9.562;2023-04-06T14:27:32;9.90;;;2.83;;
3415;SDS011;1721;51.238;9.562;2023-04-06T14:29:57;10.77;;;3.00;;
3415;SDS011;1721;51.238;9.562;2023-04-06T14:32:23;13.50;;;3.23;;
3415;SDS011;1721;51.238;9.562;2023-04-06T14:34:49;8.35;;;2.55;;
3415;SDS011;1721;51.238;9.562;2023-04-06T14:37:15;9.20;;;2.93;;
3415;SDS011;1721;51.238;9.562;2023-04-06T14:39:42;8.63;;;3.80;;
3415;SDS011;1721;51.238;9.562;2023-04-06T14:42:07;10.13;;;2.80;;
3415;SDS011;1721;51.238;9.562;2023-04-06T14:44:33;10.67;;;3.43;;
3415;SDS011;1721;51.238;9.562;2023-04-06T14:47:01;11.77;;;4.00;;
3415;SDS011;1721;51.238;9.562;2023-04-06T14:49:28;10.50;;;3.45;;
3415;SDS011;1721;51.238;9.562;2023-04-06T14:51:54;9.37;;;3.50;;
3415;SDS011;1721;51.238;9.562;2023-04-06T14:54:19;9.10;;;3.10;;
3415;SDS011;1721;51.238;9.562;2023-04-06T14:56:45;9.03;;;3.30;;
3415;SDS011;1721;51.238;9.562;2023-04-06T14:59:10;8.67;;;3.60;;
3415;SDS011;1721;51.238;9.562;2023-04-06T15:01:36;8.93;;;3.40;;
3415;SDS011;1721;51.238;9.562;2023-04-06T15:04:02;8.50;;;3.40;;
3415;SDS011;1721;51.238;9.562;2023-04-06T15:06:28;9.48;;;3.80;;
3415;SDS011;1721;51.238;9.562;2023-04-06T15:08:55;10.43;;;3.55;;
3415;SDS011;1721;51.238;9.562;2023-04-06T15:11:20;9.40;;;3.50;;
3415;SDS011;1721;51.238;9.562;2023-04-06T15:13:46;13.70;;;4.77;;
3415;SDS011;1721;51.238;9.562;2023-04-06T15:16:12;12.40;;;4.70;;
3415;SDS011;1721;51.238;9.562;2023-04-06T15:18:39;12.68;;;3.97;;
3415;SDS011;1721;51.238;9.562;2023-04-06T15:21:05;8.80;;;3.87;;
3415;SDS011;1721;51.238;9.562;2023-04-06T15:23:32;12.02;;;4.97;;